sensor_id;sensor_type;location;lat;lon;timestamp;pressure;altitude;pressure_sealevel;temperature;humidity
26083;BME280;13848;49.018;12.078;2023-05-01T00:00:51;97710.56;;;10.97;56.70
26083;BME280;13848;49.018;12.078;2023-05-01T00:03:17;97705.69;;;10.87;56.30
26083;BME280;13848;49.018;12.078;2023-05-01T00:05:44;97699.47;;;10.86;56.21
26083;BME280;13848;49.018;12.078;2023-05-01T00:08:11;97702.16;;;10.86;57.05
26083;BME280;13848;49.018;12.078;2023-05-01T00:10:37;97703.41;;;10.84;56.73
26083;BME280;13848;49.018;12.078;2023-05-01T00:13:03;97692.03;;;10.82;56.46
26083;BME280;13848;49.018;12.078;2023-05-01T00:15:29;97696.59;;;10.81;56.57
26083;BME280;13848;49.018;12.078;2023-05-01T00:17:55;97692.84;;;10.82;56.98
26083;BME280;13848;49.018;12.078;2023-05-01T00:20:24;97693.91;;;10.81;56.31
26083;BME280;13848;49.018;12.078;2023-05-01T00:22:50;97691.66;;;10.78;56.67
26083;BME280;13848;49.018;12.078;2023-05-01T00:25:18;97696.91;;;10.73;56.73
26083;BME280;13848;49.018;12.078;2023-05-01T00:27:44;97682.97;;;10.76;56.91
26083;BME280;13848;49.018;12.078;2023-05-01T00:30:10;97683.84;;;10.70;57.34
26083;BME280;13848;49.018;12.078;2023-05-01T00:32:36;97682.63;;;10.66;56.85
26083;BME280;13848;49.018;12.078;2023-05-01T00:35:02;97681.88;;;10.59;57.48
26083;BME280;13848;49.018;12.078;2023-05-01T00:37:28;97677.94;;;10.61;56.76
26083;BME280;13848;49.018;12.078;2023-05-01T00:39:54;97678.97;;;10.60;57.38
26083;BME280;13848;49.018;12.078;2023-05-01T00:42:22;97676.25;;;10.60;57.06
26083;BME280;13848;49.018;12.078;2023-05-01T00:44:48;97669.88;;;10.55;57.42
26083;BME280;13848;49.018;12.078;2023-05-01T00:47:14;97665.19;;;10.50;57.21
26083;BME280;13848;49.018;12.078;2023-05-01T00:49:41;97665.25;;;10.44;57.60
26083;BME280;13848;49.018;12.078;2023-05-01T00:52:07;97670.00;;;10.42;57.53
26083;BME280;13848;49.018;12.078;2023-05-01T00:54:33;97667.31;;;10.42;57.79
26083;BME280;13848;49.018;12.078;2023-05-01T00:56:59;97667.09;;;10.43;57.47
26083;BME280;13848;49.018;12.078;2023-05-01T00:59:26;97659.22;;;10.42;57.32
26083;BME280;13848;49.018;12.078;2023-05-01T01:01:52;97663.38;;;10.44;56.73
26083;BME280;13848;49.018;12.078;2023-05-01T01:04:18;97660.72;;;10.37;57.35
26083;BME280;13848;49.018;12.078;2023-05-01T01:06:53;97661.34;;;10.39;57.34
26083;BME280;13848;49.018;12.078;2023-05-01T01:09:28;97651.03;;;10.30;57.39
26083;BME280;13848;49.018;12.078;2023-05-01T01:12:04;97639.28;;;10.24;57.48
26083;BME280;13848;49.018;12.078;2023-05-01T01:14:36;97633.53;;;10.14;57.66
26083;BME280;13848;49.018;12.078;2023-05-01T01:17:10;97633.38;;;10.09;58.20
26083;BME280;13848;49.018;12.078;2023-05-01T01:22:39;97630.69;;;10.09;58.05
26083;BME280;13848;49.018;12.078;2023-05-01T01:28:20;97629.47;;;10.05;57.92
26083;BME280;13848;49.018;12.078;2023-05-01T01:31:08;97627.50;;;9.94;58.36
26083;BME280;13848;49.018;12.078;2023-05-01T01:33:53;97627.31;;;9.89;58.05
26083;BME280;13848;49.018;12.078;2023-05-01T01:36:25;97621.09;;;9.88;58.34
26083;BME280;13848;49.018;12.078;2023-05-01T01:39:04;97621.59;;;9.78;58.54
26083;BME280;13848;49.018;12.078;2023-05-01T01:41:33;97612.72;;;9.71;58.82
26083;BME280;13848;49.018;12.078;2023-05-01T01:44:03;97610.88;;;9.72;58.36
26083;BME280;13848;49.018;12.078;2023-05-01T01:46:35;97614.78;;;9.76;58.78
26083;BME280;13848;49.018;12.078;2023-05-01T01:49:05;97603.00;;;9.70;58.59
26083;BME280;13848;49.018;12.078;2023-05-01T01:51:34;97600.50;;;9.75;58.88
26083;BME280;13848;49.018;12.078;2023-05-01T01:54:01;97601.41;;;9.63;58.96
26083;BME280;13848;49.018;12.078;2023-05-01T01:56:29;97592.66;;;9.67;58.67
26083;BME280;13848;49.018;12.078;2023-05-01T01:59:00;97600.16;;;9.65;58.87
26083;BME280;13848;49.018;12.078;2023-05-01T02:01:26;97594.00;;;9.58;58.92
26083;BME280;13848;49.018;12.078;2023-05-01T02:03:54;97596.94;;;9.50;58.81
26083;BME280;13848;49.018;12.078;2023-05-01T02:06:21;97593.22;;;9.51;59.10
26083;BME280;13848;49.018;12.078;2023-05-01T02:08:48;97595.19;;;9.62;59.17
26083;BME280;13848;49.018;12.078;2023-05-01T02:11:18;97588.44;;;9.53;58.78
26083;BME280;13848;49.018;12.078;2023-05-01T02:13:46;97593.91;;;9.40;59.08
26083;BME280;13848;49.018;12.078;2023-05-01T02:16:13;97588.25;;;9.48;59.21
26083;BME280;13848;49.018;12.078;2023-05-01T02:18:40;97589.91;;;9.49;59.16
26083;BME280;13848;49.018;12.078;2023-05-01T02:21:08;97582.47;;;9.51;58.79
26083;BME280;13848;49.018;12.078;2023-05-01T02:23:37;97582.47;;;9.44;59.12
26083;BME280;13848;49.018;12.078;2023-05-01T02:26:04;97587.56;;;9.21;59.52
26083;BME280;13848;49.018;12.078;2023-05-01T02:28:32;97580.19;;;9.16;59.54
26083;BME280;13848;49.018;12.078;2023-05-01T02:30:59;97570.63;;;9.20;59.97
26083;BME280;13848;49.018;12.078;2023-05-01T02:33:25;97575.75;;;9.28;59.33
26083;BME280;13848;49.018;12.078;2023-05-01T02:35:51;97565.88;;;9.22;59.43
26083;BME280;13848;49.018;12.078;2023-05-01T02:38:17;97573.75;;;9.17;59.50
26083;BME280;13848;49.018;12.078;2023-05-01T02:40:47;97572.72;;;9.18;59.27
26083;BME280;13848;49.018;12.078;2023-05-01T02:43:17;97571.06;;;9.17;59.50
26083;BME280;13848;49.018;12.078;2023-05-01T02:45:43;97560.31;;;9.17;59.28
26083;BME280;13848;49.018;12.078;2023-05-01T02:48:12;97553.69;;;9.13;59.74
26083;BME280;13848;49.018;12.078;2023-05-01T02:50:40;97555.78;;;9.11;59.43
26083;BME280;13848;49.018;12.078;2023-05-01T02:53:08;97555.59;;;9.06;59.82
26083;BME280;13848;49.018;12.078;2023-05-01T02:55:34;97553.09;;;9.11;59.78
26083;BME280;13848;49.018;12.078;2023-05-01T02:58:01;97542.97;;;9.06;59.29
26083;BME280;13848;49.018;12.078;2023-05-01T03:00:27;97550.81;;;9.08;59.51
26083;BME280;13848;49.018;12.078;2023-05-01T03:02:53;97545.44;;;9.08;59.67
26083;BME280;13848;49.018;12.078;2023-05-01T03:05:19;97546.81;;;8.86;60.04
26083;BME280;13848;49.018;12.078;2023-05-01T03:07:45;97548.91;;;8.77;60.47
26083;BME280;13848;49.018;12.078;2023-05-01T03:10:12;97536.97;;;8.66;60.75
26083;BME280;13848;49.018;12.078;2023-05-01T03:12:38;97544.44;;;8.64;61.00
26083;BME280;13848;49.018;12.078;2023-05-01T03:15:06;97541.75;;;8.64;60.69
26083;BME280;13848;49.018;12.078;2023-05-01T03:17:32;97544.59;;;8.69;60.89
26083;BME280;13848;49.018;12.078;2023-05-01T03:19:58;97539.06;;;8.64;60.79
26083;BME280;13848;49.018;12.078;2023-05-01T03:22:24;97541.56;;;8.59;60.84
26083;BME280;13848;49.018;12.078;2023-05-01T03:24:53;97541.31;;;8.67;60.65
26083;BME280;13848;49.018;12.078;2023-05-01T03:27:19;97537.19;;;8.65;60.30
26083;BME280;13848;49.018;12.078;2023-05-01T03:29:45;97526.56;;;8.83;60.32
26083;BME280;13848;49.018;12.078;2023-05-01T03:32:12;97527.38;;;8.84;60.22
26083;BME280;13848;49.018;12.078;2023-05-01T03:34:38;97528.66;;;8.74;60.37
26083;BME280;13848;49.018;12.078;2023-05-01T03:37:04;97533.41;;;8.79;60.17
26083;BME280;13848;49.018;12.078;2023-05-01T03:39:30;97533.63;;;8.77;59.95
26083;BME280;13848;49.018;12.078;2023-05-01T03:41:56;97534.47;;;8.71;60.40
26083;BME280;13848;49.018;12.078;2023-05-01T03:44:22;97532.84;;;8.57;60.65
26083;BME280;13848;49.018;12.078;2023-05-01T03:46:48;97524.13;;;8.68;60.68
26083;BME280;13848;49.018;12.078;2023-05-01T03:49:15;97528.69;;;8.68;60.39
26083;BME280;13848;49.018;12.078;2023-05-01T03:51:41;97522.06;;;8.64;60.48
26083;BME280;13848;49.018;12.078;2023-05-01T03:54:07;97524.13;;;8.68;60.11
26083;BME280;13848;49.018;12.078;2023-05-01T03:56:33;97523.91;;;8.76;59.86
26083;BME280;13848;49.018;12.078;2023-05-01T03:58:59;97522.09;;;8.57;60.73
26083;BME280;13848;49.018;12.078;2023-05-01T04:01:25;97514.88;;;8.64;60.25
26083;BME280;13848;49.018;12.078;2023-05-01T04:03:51;97513.56;;;8.73;59.88
26083;BME280;13848;49.018;12.078;2023-05-01T04:06:18;97521.06;;;8.65;60.48
26083;BME280;13848;49.018;12.078;2023-05-01T04:08:44;97514.06;;;8.57;60.23
26083;BME280;13848;49.018;12.078;2023-05-01T04:11:10;97519.16;;;8.72;60.10
26083;BME280;13848;49.018;12.078;2023-05-01T04:13:36;97510.28;;;8.71;59.93
26083;BME280;13848;49.018;12.078;2023-05-01T04:16:02;97519.19;;;8.65;60.23
26083;BME280;13848;49.018;12.078;2023-05-01T04:18:28;97514.25;;;8.62;59.83
26083;BME280;13848;49.018;12.078;2023-05-01T04:20:54;97518.56;;;8.63;60.32
26083;BME280;13848;49.018;12.078;2023-05-01T04:23:22;97516.31;;;8.60;59.84
26083;BME280;13848;49.018;12.078;2023-05-01T04:25:48;97518.38;;;8.65;60.18
26083;BME280;13848;49.018;12.078;2023-05-01T04:28:14;97519.56;;;8.69;59.82
26083;BME280;13848;49.018;12.078;2023-05-01T04:30:40;97520.59;;;8.74;60.02
26083;BME280;13848;49.018;12.078;2023-05-01T04:33:06;97515.47;;;8.66;60.16
26083;BME280;13848;49.018;12.078;2023-05-01T04:35:31;97506.38;;;8.67;60.12
26083;BME280;13848;49.018;12.078;2023-05-01T04:37:57;97511.47;;;8.75;59.97
26083;BME280;13848;49.018;12.078;2023-05-01T04:40:25;97503.88;;;8.72;59.94
26083;BME280;13848;49.018;12.078;2023-05-01T04:42:50;97512.53;;;8.74;59.70
26083;BME280;13848;49.018;12.078;2023-05-01T04:45:16;97508.97;;;8.80;59.73
26083;BME280;13848;49.018;12.078;2023-05-01T04:47:42;97508.56;;;8.84;59.72
26083;BME280;13848;49.018;12.078;2023-05-01T04:50:09;97515.31;;;8.93;59.68
26083;BME280;13848;49.018;12.078;2023-05-01T04:52:35;97516.13;;;9.00;59.64
26083;BME280;13848;49.018;12.078;2023-05-01T04:55:01;97513.31;;;8.88;59.53
26083;BME280;13848;49.018;12.078;2023-05-01T04:57:28;97519.88;;;8.99;59.78
26083;BME280;13848;49.018;12.078;2023-05-01T04:59:54;97520.41;;;9.07;59.12
26083;BME280;13848;49.018;12.078;2023-05-01T05:02:20;97521.41;;;9.13;59.09
26083;BME280;13848;49.018;12.078;2023-05-01T05:04:46;97529.72;;;9.12;59.55
26083;BME280;13848;49.018;12.078;2023-05-01T05:07:12;97524.53;;;9.10;59.36
26083;BME280;13848;49.018;12.078;2023-05-01T05:09:38;97524.72;;;9.15;59.23
26083;BME280;13848;49.018;12.078;2023-05-01T05:12:04;97525.28;;;9.24;59.12
26083;BME280;13848;49.018;12.078;2023-05-01T05:14:31;97530.66;;;9.24;59.28
26083;BME280;13848;49.018;12.078;2023-05-01T05:16:57;97527.53;;;9.27;59.26
26083;BME280;13848;49.018;12.078;2023-05-01T05:19:23;97523.16;;;9.32;59.34
26083;BME280;13848;49.018;12.078;2023-05-01T05:21:49;97526.88;;;9.31;59.27
26083;BME280;13848;49.018;12.078;2023-05-01T05:24:15;97516.75;;;9.33;59.28
26083;BME280;13848;49.018;12.078;2023-05-01T05:26:41;97513.59;;;9.37;59.21
26083;BME280;13848;49.018;12.078;2023-05-01T05:29:07;97512.56;;;9.38;59.37
26083;BME280;13848;49.018;12.078;2023-05-01T05:31:34;97518.75;;;9.38;59.39
26083;BME280;13848;49.018;12.078;2023-05-01T05:34:00;97515.03;;;9.39;59.13
26083;BME280;13848;49.018;12.078;2023-05-01T05:36:26;97516.81;;;9.52;58.87
26083;BME280;13848;49.018;12.078;2023-05-01T05:38:52;97524.06;;;9.51;58.71
26083;BME280;13848;49.018;12.078;2023-05-01T05:41:18;97516.19;;;9.50;59.15
26083;BME280;13848;49.018;12.078;2023-05-01T05:43:44;97518.16;;;9.61;58.80
26083;BME280;13848;49.018;12.078;2023-05-01T05:46:10;97517.75;;;9.64;58.75
26083;BME280;13848;49.018;12.078;2023-05-01T05:48:37;97524.28;;;9.75;58.53
26083;BME280;13848;49.018;12.078;2023-05-01T05:51:03;97525.41;;;9.85;58.15
26083;BME280;13848;49.018;12.078;2023-05-01T05:53:29;97519.03;;;10.05;57.87
26083;BME280;13848;49.018;12.078;2023-05-01T05:55:55;97524.66;;;10.22;58.21
26083;BME280;13848;49.018;12.078;2023-05-01T05:58:21;97523.13;;;10.32;57.57
26083;BME280;13848;49.018;12.078;2023-05-01T06:00:47;97521.94;;;10.47;57.65
26083;BME280;13848;49.018;12.078;2023-05-01T06:03:13;97518.03;;;10.61;57.35
26083;BME280;13848;49.018;12.078;2023-05-01T06:05:41;97514.13;;;10.75;56.97
26083;BME280;13848;49.018;12.078;2023-05-01T06:08:07;97513.56;;;11.03;57.19
26083;BME280;13848;49.018;12.078;2023-05-01T06:10:33;97510.09;;;11.26;56.62
26083;BME280;13848;49.018;12.078;2023-05-01T06:12:59;97514.25;;;11.40;56.25
26083;BME280;13848;49.018;12.078;2023-05-01T06:15:25;97506.53;;;11.56;56.13
26083;BME280;13848;49.018;12.078;2023-05-01T06:17:51;97508.28;;;11.50;55.64
26083;BME280;13848;49.018;12.078;2023-05-01T06:20:17;97514.16;;;11.59;55.76
26083;BME280;13848;49.018;12.078;2023-05-01T06:22:44;97502.78;;;11.57;55.37
26083;BME280;13848;49.018;12.078;2023-05-01T06:25:10;97502.66;;;11.52;56.23
26083;BME280;13848;49.018;12.078;2023-05-01T06:27:36;97498.44;;;11.56;55.49
26083;BME280;13848;49.018;12.078;2023-05-01T06:30:03;97496.56;;;11.68;55.44
26083;BME280;13848;49.018;12.078;2023-05-01T06:32:29;97495.09;;;11.84;55.00
26083;BME280;13848;49.018;12.078;2023-05-01T06:34:55;97484.25;;;11.72;54.56
26083;BME280;13848;49.018;12.078;2023-05-01T06:37:21;97487.31;;;11.87;55.74
26083;BME280;13848;49.018;12.078;2023-05-01T06:39:48;97489.91;;;12.06;54.62
26083;BME280;13848;49.018;12.078;2023-05-01T06:42:14;97475.66;;;12.22;53.86
26083;BME280;13848;49.018;12.078;2023-05-01T06:44:40;97477.66;;;12.27;53.56
26083;BME280;13848;49.018;12.078;2023-05-01T06:47:06;97485.28;;;12.41;54.53
26083;BME280;13848;49.018;12.078;2023-05-01T06:49:31;97491.81;;;12.57;54.05
26083;BME280;13848;49.018;12.078;2023-05-01T06:51:57;97476.53;;;12.63;53.53
26083;BME280;13848;49.018;12.078;2023-05-01T06:54:23;97478.94;;;12.47;53.84
26083;BME280;13848;49.018;12.078;2023-05-01T06:56:51;97474.56;;;12.58;53.43
26083;BME280;13848;49.018;12.078;2023-05-01T06:59:17;97477.69;;;12.67;53.94
26083;BME280;13848;49.018;12.078;2023-05-01T07:01:43;97484.94;;;12.78;53.88
26083;BME280;13848;49.018;12.078;2023-05-01T07:04:09;97464.75;;;12.97;53.53
26083;BME280;13848;49.018;12.078;2023-05-01T07:06:35;97470.16;;;13.26;53.75
26083;BME280;13848;49.018;12.078;2023-05-01T07:09:03;97472.06;;;13.42;53.62
26083;BME280;13848;49.018;12.078;2023-05-01T07:11:29;97478.41;;;13.65;53.20
26083;BME280;13848;49.018;12.078;2023-05-01T07:13:56;97471.00;;;13.26;52.84
26083;BME280;13848;49.018;12.078;2023-05-01T07:16:22;97469.22;;;13.49;52.68
26083;BME280;13848;49.018;12.078;2023-05-01T07:18:48;97471.66;;;13.84;52.98
26083;BME280;13848;49.018;12.078;2023-05-01T07:21:14;97469.22;;;13.82;51.66
26083;BME280;13848;49.018;12.078;2023-05-01T07:23:40;97470.47;;;14.14;52.38
26083;BME280;13848;49.018;12.078;2023-05-01T07:26:06;97463.69;;;14.33;51.42
26083;BME280;13848;49.018;12.078;2023-05-01T07:28:32;97460.13;;;14.49;50.59
26083;BME280;13848;49.018;12.078;2023-05-01T07:30:59;97456.84;;;14.47;50.37
26083;BME280;13848;49.018;12.078;2023-05-01T07:33:25;97462.00;;;14.49;49.92
26083;BME280;13848;49.018;12.078;2023-05-01T07:35:51;97457.72;;;14.53;46.94
26083;BME280;13848;49.018;12.078;2023-05-01T07:38:17;97467.78;;;14.35;47.44
26083;BME280;13848;49.018;12.078;2023-05-01T07:40:43;97463.78;;;13.82;46.65
26083;BME280;13848;49.018;12.078;2023-05-01T07:43:09;97460.22;;;14.16;47.78
26083;BME280;13848;49.018;12.078;2023-05-01T07:45:35;97463.03;;;14.26;47.18
26083;BME280;13848;49.018;12.078;2023-05-01T07:48:02;97463.91;;;14.09;46.45
26083;BME280;13848;49.018;12.078;2023-05-01T07:50:28;97464.91;;;14.03;46.09
26083;BME280;13848;49.018;12.078;2023-05-01T07:52:54;97467.19;;;14.11;46.81
26083;BME280;13848;49.018;12.078;2023-05-01T07:55:21;97469.31;;;14.26;45.63
26083;BME280;13848;49.018;12.078;2023-05-01T07:57:47;97463.94;;;13.42;46.92
26083;BME280;13848;49.018;12.078;2023-05-01T08:00:13;97485.13;;;13.79;47.10
26083;BME280;13848;49.018;12.078;2023-05-01T08:02:40;97466.06;;;13.74;45.71
26083;BME280;13848;49.018;12.078;2023-05-01T08:05:07;97471.00;;;13.43;46.67
26083;BME280;13848;49.018;12.078;2023-05-01T08:07:34;97475.34;;;13.44;46.55
26083;BME280;13848;49.018;12.078;2023-05-01T08:10:00;97475.38;;;13.61;45.36
26083;BME280;13848;49.018;12.078;2023-05-01T08:12:27;97463.94;;;13.42;46.34
26083;BME280;13848;49.018;12.078;2023-05-01T08:14:53;97470.38;;;13.53;46.65
26083;BME280;13848;49.018;12.078;2023-05-01T08:17:19;97474.41;;;13.22;46.89
26083;BME280;13848;49.018;12.078;2023-05-01T08:19:45;97470.91;;;13.38;47.08
26083;BME280;13848;49.018;12.078;2023-05-01T08:22:13;97463.88;;;13.37;46.42
26083;BME280;13848;49.018;12.078;2023-05-01T08:24:39;97467.41;;;13.38;46.63
26083;BME280;13848;49.018;12.078;2023-05-01T08:27:05;97481.34;;;13.29;47.36
26083;BME280;13848;49.018;12.078;2023-05-01T08:29:31;97469.84;;;13.39;46.96
26083;BME280;13848;49.018;12.078;2023-05-01T08:31:57;97473.34;;;13.51;47.33
26083;BME280;13848;49.018;12.078;2023-05-01T08:34:23;97462.63;;;13.62;47.44
26083;BME280;13848;49.018;12.078;2023-05-01T08:36:49;97462.63;;;13.62;47.42
26083;BME280;13848;49.018;12.078;2023-05-01T08:39:16;97453.09;;;13.93;47.18
26083;BME280;13848;49.018;12.078;2023-05-01T08:41:44;97454.88;;;14.21;46.99
26083;BME280;13848;49.018;12.078;2023-05-01T08:44:12;97434.88;;;14.49;47.23
26083;BME280;13848;49.018;12.078;2023-05-01T08:46:44;97451.56;;;14.19;46.13
26083;BME280;13848;49.018;12.078;2023-05-01T08:49:12;97458.38;;;13.82;47.26
26083;BME280;13848;49.018;12.078;2023-05-01T08:51:40;97464.59;;;13.49;47.92
26083;BME280;13848;49.018;12.078;2023-05-01T08:54:07;97459.63;;;13.41;48.91
26083;BME280;13848;49.018;12.078;2023-05-01T08:56:36;97452.94;;;13.99;48.21
26083;BME280;13848;49.018;12.078;2023-05-01T08:59:04;97453.84;;;14.27;47.95
26083;BME280;13848;49.018;12.078;2023-05-01T09:01:32;97447.63;;;14.26;46.78
26083;BME280;13848;49.018;12.078;2023-05-01T09:04:01;97446.06;;;14.14;47.91
26083;BME280;13848;49.018;12.078;2023-05-01T09:06:27;97434.31;;;14.08;47.27
26083;BME280;13848;49.018;12.078;2023-05-01T09:08:53;97432.78;;;14.34;46.92
26083;BME280;13848;49.018;12.078;2023-05-01T09:11:20;97436.25;;;14.29;46.32
26083;BME280;13848;49.018;12.078;2023-05-01T09:13:48;97440.13;;;13.95;46.21
26083;BME280;13848;49.018;12.078;2023-05-01T09:16:15;97448.06;;;14.01;46.39
26083;BME280;13848;49.018;12.078;2023-05-01T09:18:41;97436.06;;;13.58;47.40
26083;BME280;13848;49.018;12.078;2023-05-01T09:21:07;97444.72;;;13.94;47.30
26083;BME280;13848;49.018;12.078;2023-05-01T09:23:33;97440.94;;;13.95;47.08
26083;BME280;13848;49.018;12.078;2023-05-01T09:25:59;97436.94;;;14.20;46.79
26083;BME280;13848;49.018;12.078;2023-05-01T09:28:48;97436.25;;;14.29;46.61
26083;BME280;13848;49.018;12.078;2023-05-01T09:31:21;97429.38;;;14.22;46.92
26083;BME280;13848;49.018;12.078;2023-05-01T09:33:50;97430.28;;;14.27;47.16
26083;BME280;13848;49.018;12.078;2023-05-01T09:36:16;97431.22;;;14.38;47.22
26083;BME280;13848;49.018;12.078;2023-05-01T09:38:42;97427.38;;;14.34;46.84
26083;BME280;13848;49.018;12.078;2023-05-01T09:41:09;97426.41;;;14.45;47.90
26083;BME280;13848;49.018;12.078;2023-05-01T09:43:35;97432.34;;;14.86;47.06
26083;BME280;13848;49.018;12.078;2023-05-01T09:46:04;97434.56;;;14.45;47.38
26083;BME280;13848;49.018;12.078;2023-05-01T09:48:31;97431.97;;;14.77;46.20
26083;BME280;13848;49.018;12.078;2023-05-01T09:50:57;97430.41;;;14.59;47.19
26083;BME280;13848;49.018;12.078;2023-05-01T09:53:35;97434.19;;;14.58;46.32
26083;BME280;13848;49.018;12.078;2023-05-01T09:56:02;97428.66;;;14.31;47.12
26083;BME280;13848;49.018;12.078;2023-05-01T09:58:28;97430.13;;;14.56;47.31
26083;BME280;13848;49.018;12.078;2023-05-01T10:00:54;97427.06;;;14.74;46.87
26083;BME280;13848;49.018;12.078;2023-05-01T10:03:21;97420.28;;;14.77;46.41
26083;BME280;13848;49.018;12.078;2023-05-01T10:05:47;97426.28;;;15.06;46.53
26083;BME280;13848;49.018;12.078;2023-05-01T10:08:14;97432.56;;;15.38;45.97
26083;BME280;13848;49.018;12.078;2023-05-01T10:10:40;97418.69;;;15.35;45.21
26083;BME280;13848;49.018;12.078;2023-05-01T10:13:13;97421.06;;;15.26;45.57
26083;BME280;13848;49.018;12.078;2023-05-01T10:15:39;97420.03;;;15.05;45.19
26083;BME280;13848;49.018;12.078;2023-05-01T10:18:06;97419.63;;;15.18;45.74
26083;BME280;13848;49.018;12.078;2023-05-01T10:20:33;97413.78;;;15.32;45.34
26083;BME280;13848;49.018;12.078;2023-05-01T10:23:00;97414.19;;;15.18;45.39
26083;BME280;13848;49.018;12.078;2023-05-01T10:25:26;97414.31;;;15.34;44.99
26083;BME280;13848;49.018;12.078;2023-05-01T10:27:54;97416.81;;;15.40;44.57
26083;BME280;13848;49.018;12.078;2023-05-01T10:30:21;97422.38;;;15.24;44.96
26083;BME280;13848;49.018;12.078;2023-05-01T10:32:47;97421.63;;;15.01;45.27
26083;BME280;13848;49.018;12.078;2023-05-01T10:35:17;97421.72;;;15.38;45.15
26083;BME280;13848;49.018;12.078;2023-05-01T10:37:47;97419.09;;;15.54;44.27
26083;BME280;13848;49.018;12.078;2023-05-01T10:40:42;97422.84;;;15.42;44.22
26083;BME280;13848;49.018;12.078;2023-05-01T10:43:16;97421.19;;;15.09;44.35
26083;BME280;13848;49.018;12.078;2023-05-01T10:45:43;97426.72;;;15.25;44.48
26083;BME280;13848;49.018;12.078;2023-05-01T10:48:09;97411.56;;;15.29;45.00
26083;BME280;13848;49.018;12.078;2023-05-01T10:51:07;97415.91;;;15.62;44.66
26083;BME280;13848;49.018;12.078;2023-05-01T10:53:35;97415.22;;;15.12;44.67
26083;BME280;13848;49.018;12.078;2023-05-01T10:56:01;97411.22;;;15.52;44.19
26083;BME280;13848;49.018;12.078;2023-05-01T10:58:53;97407.41;;;15.53;44.00
26083;BME280;13848;49.018;12.078;2023-05-01T11:01:30;97411.09;;;15.37;44.33
26083;BME280;13848;49.018;12.078;2023-05-01T11:03:57;97405.41;;;15.38;44.51
26083;BME280;13848;49.018;12.078;2023-05-01T11:06:23;97408.09;;;15.65;44.84
26083;BME280;13848;49.018;12.078;2023-05-01T11:08:51;97397.19;;;16.08;43.65
26083;BME280;13848;49.018;12.078;2023-05-01T11:11:45;97407.88;;;16.19;43.17
26083;BME280;13848;49.018;12.078;2023-05-01T11:14:11;97394.31;;;16.30;43.38
26083;BME280;13848;49.018;12.078;2023-05-01T11:16:41;97402.59;;;16.60;43.21
26083;BME280;13848;49.018;12.078;2023-05-01T11:19:09;97402.59;;;16.60;43.53
26083;BME280;13848;49.018;12.078;2023-05-01T11:21:37;97394.97;;;16.62;42.57
26083;BME280;13848;49.018;12.078;2023-05-01T11:24:05;97388.53;;;16.89;43.25
26083;BME280;13848;49.018;12.078;2023-05-01T11:26:31;97394.00;;;17.04;42.55
26083;BME280;13848;49.018;12.078;2023-05-01T11:28:59;97379.03;;;17.07;42.15
26083;BME280;13848;49.018;12.078;2023-05-01T11:31:26;97388.78;;;16.09;43.59
26083;BME280;13848;49.018;12.078;2023-05-01T11:33:54;97386.69;;;16.32;43.47
26083;BME280;13848;49.018;12.078;2023-05-01T11:36:21;97392.84;;;16.12;43.36
26083;BME280;13848;49.018;12.078;2023-05-01T11:38:50;97386.69;;;16.32;43.59
26083;BME280;13848;49.018;12.078;2023-05-01T11:41:20;97388.88;;;16.30;43.29
26083;BME280;13848;49.018;12.078;2023-05-01T11:43:49;97386.78;;;16.47;43.65
26083;BME280;13848;49.018;12.078;2023-05-01T11:46:22;97372.09;;;16.63;43.30
26083;BME280;13848;49.018;12.078;2023-05-01T11:48:49;97373.31;;;17.08;43.34
26083;BME280;13848;49.018;12.078;2023-05-01T11:51:15;97369.50;;;16.94;42.25
26083;BME280;13848;49.018;12.078;2023-05-01T11:53:41;97382.38;;;16.36;43.57
26083;BME280;13848;49.018;12.078;2023-05-01T11:56:18;97367.19;;;16.50;43.40
26083;BME280;13848;49.018;12.078;2023-05-01T11:58:46;97373.69;;;16.44;44.07
26083;BME280;13848;49.018;12.078;2023-05-01T12:01:12;97376.44;;;16.54;43.62
26083;BME280;13848;49.018;12.078;2023-05-01T12:03:41;97371.03;;;16.69;43.76
26083;BME280;13848;49.018;12.078;2023-05-01T12:06:08;97371.53;;;16.56;43.21
26083;BME280;13848;49.018;12.078;2023-05-01T12:08:34;97364.50;;;16.65;43.66
26083;BME280;13848;49.018;12.078;2023-05-01T12:11:01;97360.22;;;17.20;43.87
26083;BME280;13848;49.018;12.078;2023-05-01T12:13:27;97359.69;;;17.44;43.40
26083;BME280;13848;49.018;12.078;2023-05-01T12:15:55;97361.88;;;17.57;43.20
26083;BME280;13848;49.018;12.078;2023-05-01T12:18:21;97361.00;;;16.80;42.63
26083;BME280;13848;49.018;12.078;2023-05-01T12:20:49;97364.13;;;16.31;44.04
26083;BME280;13848;49.018;12.078;2023-05-01T12:23:15;97363.91;;;16.48;43.86
26083;BME280;13848;49.018;12.078;2023-05-01T12:25:43;97356.16;;;16.87;43.58
26083;BME280;13848;49.018;12.078;2023-05-01T12:28:11;97355.88;;;17.14;43.50
26083;BME280;13848;49.018;12.078;2023-05-01T12:30:37;97354.50;;;17.37;43.02
26083;BME280;13848;49.018;12.078;2023-05-01T12:33:12;97356.41;;;17.57;42.54
26083;BME280;13848;49.018;12.078;2023-05-01T12:35:39;97351.00;;;17.16;42.44
26083;BME280;13848;49.018;12.078;2023-05-01T12:38:10;97356.69;;;17.05;42.56
26083;BME280;13848;49.018;12.078;2023-05-01T12:40:37;97353.13;;;16.84;43.25
26083;BME280;13848;49.018;12.078;2023-05-01T12:43:03;97346.34;;;17.12;43.37
26083;BME280;13848;49.018;12.078;2023-05-01T12:45:29;97348.53;;;17.30;43.47
26083;BME280;13848;49.018;12.078;2023-05-01T12:48:09;97350.97;;;17.47;43.30
26083;BME280;13848;49.018;12.078;2023-05-01T12:50:36;97344.16;;;17.44;42.88
26083;BME280;13848;49.018;12.078;2023-05-01T12:53:02;97343.09;;;17.40;43.12
26083;BME280;13848;49.018;12.078;2023-05-01T12:55:28;97346.88;;;17.54;43.24
26083;BME280;13848;49.018;12.078;2023-05-01T12:57:54;97350.41;;;17.70;42.65
26083;BME280;13848;49.018;12.078;2023-05-01T13:00:21;97347.13;;;17.63;43.11